Satsop, WA

7:30 PM PDT on August 20, 2014 (GMT -0700)
Satsop/Fuller Hill | Change Station
CLOSE
Current Station
Personal Weather Station
Location: Elma, WA
Elevation: 327 ft
Nearby Weather Stations

Elev 327 ft 46.97 °N, 123.49 °W | Updated 50 minutes ago

Overcast
Overcast
64.1 °F
Feels Like 64.1 °F
N
2.0
Wind Variable Wind from WSW
Gusts 3.0 mph

Today
High -- | Low -- °F
--% Chance of Precip.
Yesterday
High -- | Low -- °F
Precip. -- in
6:17 AM 8:15 PM
Waning Crescent, 17% visible
Pressure 30.01 in
Visibility 7.0 miles
Clouds Overcast 2200 ft
Dew Point 55 °F
Humidity 72%
Rainfall 0.00 in
Snow Depth Not available.
UV 0 out of 12
Pollen 3.10 out of 12
Air Quality Not available.
Flu Activity Not available.
SPECI KHQM 210218Z AUTO 24009KT 7SM OVC022 17/12 A3001 RMK AO2 T01670117

More Conditions Fewer Conditions

Pressure 30.01 in
Visibility 7.0 miles
Clouds Overcast 2200 ft
Dew Point 55 °F
Humidity 72%
Rainfall 0.00 in
Snow Depth Not available.
UV 0 out of 12
Pollen 3.10 out of 12
Air Quality Not available.
Flu Activity Not available.
SPECI KHQM 210218Z AUTO 24009KT 7SM OVC022 17/12 A3001 RMK AO2 T01670117

More Conditions Fewer Conditions

10-Day Weather Forecast

Almanac

Astronomy

Aug. 20, 2014 Rise Set
Actual Time 6:17 AM PDT 8:15 PM PDT
Civil Twilight 5:45 AM PDT 8:48 PM PDT
Nautical Twilight 5:04 AM PDT 9:28 PM PDT
Astronomical Twilight 4:19 AM PDT 10:12 PM PDT
Moon 1:55 AM PDT (8/20) 5:11 PM PDT (8/20)
Length of Visible Light 15h 03m
Length of Day
13h 57m
Tomorrow will be 3m 7s shorter.
Waning Crescent, 17% of the Moon is Illuminated
Today
Waning Crescent
Aug 25
New
Sep 2
First Quarter
Sep 8
Full
Sep 15
Last Quarter

Today's Extremes

State Highs State Lows

Community

WunderPhotos

Upload Photos

1,745,838 photos uploaded!

WunderBlogs® & News

By Dr. Jeff Masters
Director of Meteorology, Weather Underground
By Kari Strenfel
Meteorologist, Weather Underground
By Christopher C. Burt
Weather Historian, Weather Underground
August 20, 2014
August 20, 2014
August 20, 2014

Nearby

Snow Depth

Station Depth Elevation
Dungeness 5 in 4100 ft
Burnt Mountain 1 in 4200 ft
Swift Creek 1 in 3770 ft
June Lake 0 in 3340 ft
Lone Pine 0 in 3800 ft

Earthquake Activity

City Distance Mag. Time & Date
No recent earthquake activity has been reported nearby.
Minimum magnitude displayed is 2.5.

Coastal Water Temperatures

Place Temperature
Westport, WA 57.0 °F
Tacoma, WA 55.9 °F
Seattle, WA 55.9 °F
Astoria, OR 70.0 °F

Nearby Weather Stations